sensor_id;sensor_type;location;lat;lon;timestamp;temperature;humidity
76787;DHT22;65739;51.482;5.702;2023-09-18T00:01:52;18.50;99.90
76787;DHT22;65739;51.482;5.702;2023-09-18T00:04:17;18.50;99.90
76787;DHT22;65739;51.482;5.702;2023-09-18T00:06:43;18.50;99.90
76787;DHT22;65739;51.482;5.702;2023-09-18T00:09:09;18.50;99.90
76787;DHT22;65739;51.482;5.702;2023-09-18T00:11:37;18.50;99.90
76787;DHT22;65739;51.482;5.702;2023-09-18T00:14:04;18.40;99.90
76787;DHT22;65739;51.482;5.702;2023-09-18T00:16:29;18.40;99.90
76787;DHT22;65739;51.482;5.702;2023-09-18T00:18:55;18.40;99.90
76787;DHT22;65739;51.482;5.702;2023-09-18T00:21:20;18.40;99.90
76787;DHT22;65739;51.482;5.702;2023-09-18T00:23:46;18.40;99.90
76787;DHT22;65739;51.482;5.702;2023-09-18T00:26:12;18.40;99.90
76787;DHT22;65739;51.482;5.702;2023-09-18T00:28:37;18.40;99.90
76787;DHT22;65739;51.482;5.702;2023-09-18T00:31:03;18.40;99.90
76787;DHT22;65739;51.482;5.702;2023-09-18T00:33:28;18.40;99.90
76787;DHT22;65739;51.482;5.702;2023-09-18T00:35:54;18.50;99.90
76787;DHT22;65739;51.482;5.702;2023-09-18T00:38:19;18.50;99.90
76787;DHT22;65739;51.482;5.702;2023-09-18T00:40:46;18.50;99.90
76787;DHT22;65739;51.482;5.702;2023-09-18T00:43:11;18.50;99.90
76787;DHT22;65739;51.482;5.702;2023-09-18T00:45:42;18.60;99.90
76787;DHT22;65739;51.482;5.702;2023-09-18T00:48:09;18.60;99.90
76787;DHT22;65739;51.482;5.702;2023-09-18T00:50:36;18.70;99.90
76787;DHT22;65739;51.482;5.702;2023-09-18T00:53:02;18.70;99.90
76787;DHT22;65739;51.482;5.702;2023-09-18T00:55:30;18.70;99.90
76787;DHT22;65739;51.482;5.702;2023-09-18T00:57:56;18.80;99.90
76787;DHT22;65739;51.482;5.702;2023-09-18T01:00:22;18.80;99.90
76787;DHT22;65739;51.482;5.702;2023-09-18T01:02:47;18.80;99.90
76787;DHT22;65739;51.482;5.702;2023-09-18T01:05:13;18.80;99.90
76787;DHT22;65739;51.482;5.702;2023-09-18T01:07:42;18.90;99.90
76787;DHT22;65739;51.482;5.702;2023-09-18T01:10:08;18.90;99.90
76787;DHT22;65739;51.482;5.702;2023-09-18T01:12:40;18.90;99.90
76787;DHT22;65739;51.482;5.702;2023-09-18T01:15:12;18.90;99.90
76787;DHT22;65739;51.482;5.702;2023-09-18T01:17:40;18.90;99.90
76787;DHT22;65739;51.482;5.702;2023-09-18T01:20:10;19.40;99.90
76787;DHT22;65739;51.482;5.702;2023-09-18T01:22:36;19.00;99.90
76787;DHT22;65739;51.482;5.702;2023-09-18T01:25:01;19.00;99.90
76787;DHT22;65739;51.482;5.702;2023-09-18T01:27:27;19.00;99.90
76787;DHT22;65739;51.482;5.702;2023-09-18T01:29:53;19.00;99.90
76787;DHT22;65739;51.482;5.702;2023-09-18T01:32:19;19.00;99.90
76787;DHT22;65739;51.482;5.702;2023-09-18T01:34:47;19.00;99.90
76787;DHT22;65739;51.482;5.702;2023-09-18T01:37:15;19.10;99.90
76787;DHT22;65739;51.482;5.702;2023-09-18T01:39:41;19.00;99.90
76787;DHT22;65739;51.482;5.702;2023-09-18T01:42:07;19.10;99.90
76787;DHT22;65739;51.482;5.702;2023-09-18T01:44:37;19.10;99.90
76787;DHT22;65739;51.482;5.702;2023-09-18T01:47:12;19.10;99.90
76787;DHT22;65739;51.482;5.702;2023-09-18T01:49:39;19.10;99.90
76787;DHT22;65739;51.482;5.702;2023-09-18T01:52:07;19.10;99.90
76787;DHT22;65739;51.482;5.702;2023-09-18T01:54:33;19.10;99.90
76787;DHT22;65739;51.482;5.702;2023-09-18T01:56:59;19.10;99.90
76787;DHT22;65739;51.482;5.702;2023-09-18T01:59:25;19.10;99.90
76787;DHT22;65739;51.482;5.702;2023-09-18T02:01:52;19.20;99.90
76787;DHT22;65739;51.482;5.702;2023-09-18T02:04:19;19.20;99.90
76787;DHT22;65739;51.482;5.702;2023-09-18T02:06:45;19.20;99.90
76787;DHT22;65739;51.482;5.702;2023-09-18T02:09:11;19.20;99.90
76787;DHT22;65739;51.482;5.702;2023-09-18T02:11:40;19.30;99.90
76787;DHT22;65739;51.482;5.702;2023-09-18T02:14:06;19.20;99.90
76787;DHT22;65739;51.482;5.702;2023-09-18T02:16:39;19.20;99.90
76787;DHT22;65739;51.482;5.702;2023-09-18T02:19:12;19.20;99.90
76787;DHT22;65739;51.482;5.702;2023-09-18T02:21:39;19.20;99.90
76787;DHT22;65739;51.482;5.702;2023-09-18T02:24:05;19.20;99.90
76787;DHT22;65739;51.482;5.702;2023-09-18T02:26:31;19.20;99.90
76787;DHT22;65739;51.482;5.702;2023-09-18T02:28:59;19.20;99.90
76787;DHT22;65739;51.482;5.702;2023-09-18T02:31:25;19.20;99.90
76787;DHT22;65739;51.482;5.702;2023-09-18T02:33:50;19.20;99.90
76787;DHT22;65739;51.482;5.702;2023-09-18T02:36:16;19.20;99.90
76787;DHT22;65739;51.482;5.702;2023-09-18T02:38:42;19.20;99.90
76787;DHT22;65739;51.482;5.702;2023-09-18T02:41:08;19.30;99.90
76787;DHT22;65739;51.482;5.702;2023-09-18T02:43:34;19.10;99.90
76787;DHT22;65739;51.482;5.702;2023-09-18T02:45:59;19.20;99.90
76787;DHT22;65739;51.482;5.702;2023-09-18T02:48:25;19.30;99.90
76787;DHT22;65739;51.482;5.702;2023-09-18T02:50:51;19.30;99.90
76787;DHT22;65739;51.482;5.702;2023-09-18T02:53:18;19.20;99.90
76787;DHT22;65739;51.482;5.702;2023-09-18T02:55:44;19.20;99.90
76787;DHT22;65739;51.482;5.702;2023-09-18T02:58:10;19.10;99.90
76787;DHT22;65739;51.482;5.702;2023-09-18T03:00:44;19.10;99.90
76787;DHT22;65739;51.482;5.702;2023-09-18T03:03:10;19.20;99.90
76787;DHT22;65739;51.482;5.702;2023-09-18T03:05:36;19.20;99.90
76787;DHT22;65739;51.482;5.702;2023-09-18T03:08:01;19.20;99.90
76787;DHT22;65739;51.482;5.702;2023-09-18T03:10:27;19.20;99.90
76787;DHT22;65739;51.482;5.702;2023-09-18T03:12:53;19.20;99.90
76787;DHT22;65739;51.482;5.702;2023-09-18T03:15:18;19.20;99.90
76787;DHT22;65739;51.482;5.702;2023-09-18T03:17:44;19.30;99.90
76787;DHT22;65739;51.482;5.702;2023-09-18T03:20:10;19.30;99.90
76787;DHT22;65739;51.482;5.702;2023-09-18T03:22:35;19.30;99.90
76787;DHT22;65739;51.482;5.702;2023-09-18T03:25:01;19.40;99.90
76787;DHT22;65739;51.482;5.702;2023-09-18T03:27:27;19.40;99.90
76787;DHT22;65739;51.482;5.702;2023-09-18T03:29:57;19.50;99.90
76787;DHT22;65739;51.482;5.702;2023-09-18T03:32:23;19.50;99.90
76787;DHT22;65739;51.482;5.702;2023-09-18T03:34:52;19.50;99.90
76787;DHT22;65739;51.482;5.702;2023-09-18T03:37:18;19.50;99.90
76787;DHT22;65739;51.482;5.702;2023-09-18T03:39:44;19.50;99.90
76787;DHT22;65739;51.482;5.702;2023-09-18T03:42:10;19.70;99.90
76787;DHT22;65739;51.482;5.702;2023-09-18T03:44:36;19.90;99.90
76787;DHT22;65739;51.482;5.702;2023-09-18T03:47:01;19.90;99.90
76787;DHT22;65739;51.482;5.702;2023-09-18T03:49:29;19.90;99.90
76787;DHT22;65739;51.482;5.702;2023-09-18T03:51:54;19.80;99.90
76787;DHT22;65739;51.482;5.702;2023-09-18T03:54:20;19.90;99.90
76787;DHT22;65739;51.482;5.702;2023-09-18T03:56:45;19.90;99.90
76787;DHT22;65739;51.482;5.702;2023-09-18T03:59:12;20.10;99.90
76787;DHT22;65739;51.482;5.702;2023-09-18T04:01:37;20.10;99.90
76787;DHT22;65739;51.482;5.702;2023-09-18T04:04:03;20.10;99.90
76787;DHT22;65739;51.482;5.702;2023-09-18T04:06:36;20.10;99.90
76787;DHT22;65739;51.482;5.702;2023-09-18T04:09:03;20.10;99.90
76787;DHT22;65739;51.482;5.702;2023-09-18T04:11:29;20.10;99.90
76787;DHT22;65739;51.482;5.702;2023-09-18T04:13:58;20.10;99.90
76787;DHT22;65739;51.482;5.702;2023-09-18T04:16:24;20.10;99.90
76787;DHT22;65739;51.482;5.702;2023-09-18T04:18:50;20.10;99.90
76787;DHT22;65739;51.482;5.702;2023-09-18T04:21:16;20.10;99.90
76787;DHT22;65739;51.482;5.702;2023-09-18T04:23:41;20.10;99.90
76787;DHT22;65739;51.482;5.702;2023-09-18T04:26:07;20.10;99.90
76787;DHT22;65739;51.482;5.702;2023-09-18T04:28:32;20.10;99.90
76787;DHT22;65739;51.482;5.702;2023-09-18T04:30:58;20.10;99.90
76787;DHT22;65739;51.482;5.702;2023-09-18T04:33:23;20.10;99.90
76787;DHT22;65739;51.482;5.702;2023-09-18T04:35:50;20.00;99.90
76787;DHT22;65739;51.482;5.702;2023-09-18T04:38:16;20.00;99.90
76787;DHT22;65739;51.482;5.702;2023-09-18T04:40:44;20.00;99.90
76787;DHT22;65739;51.482;5.702;2023-09-18T04:43:11;20.00;99.90
76787;DHT22;65739;51.482;5.702;2023-09-18T04:45:36;20.00;99.90
76787;DHT22;65739;51.482;5.702;2023-09-18T04:48:02;19.90;99.90
76787;DHT22;65739;51.482;5.702;2023-09-18T04:50:28;19.90;99.90
76787;DHT22;65739;51.482;5.702;2023-09-18T04:52:54;20.00;99.90
76787;DHT22;65739;51.482;5.702;2023-09-18T04:55:21;20.00;99.90
76787;DHT22;65739;51.482;5.702;2023-09-18T04:57:47;20.10;99.90
76787;DHT22;65739;51.482;5.702;2023-09-18T05:00:12;20.00;99.90
76787;DHT22;65739;51.482;5.702;2023-09-18T05:02:40;20.10;99.90
76787;DHT22;65739;51.482;5.702;2023-09-18T05:05:06;20.40;99.90
76787;DHT22;65739;51.482;5.702;2023-09-18T05:07:34;20.10;99.90
76787;DHT22;65739;51.482;5.702;2023-09-18T05:09:59;20.20;99.90
76787;DHT22;65739;51.482;5.702;2023-09-18T05:12:25;20.20;99.90
76787;DHT22;65739;51.482;5.702;2023-09-18T05:14:51;20.10;99.90
76787;DHT22;65739;51.482;5.702;2023-09-18T05:17:17;20.00;99.90
76787;DHT22;65739;51.482;5.702;2023-09-18T05:19:43;20.00;99.90
76787;DHT22;65739;51.482;5.702;2023-09-18T05:22:09;19.90;99.90
76787;DHT22;65739;51.482;5.702;2023-09-18T05:24:38;19.90;99.90
76787;DHT22;65739;51.482;5.702;2023-09-18T05:27:04;19.80;99.90
76787;DHT22;65739;51.482;5.702;2023-09-18T05:29:31;19.80;99.90
76787;DHT22;65739;51.482;5.702;2023-09-18T05:31:57;19.70;99.90
76787;DHT22;65739;51.482;5.702;2023-09-18T05:34:22;19.80;99.90
76787;DHT22;65739;51.482;5.702;2023-09-18T05:36:48;19.70;99.90
76787;DHT22;65739;51.482;5.702;2023-09-18T05:39:14;19.70;99.90
76787;DHT22;65739;51.482;5.702;2023-09-18T05:41:40;19.60;99.90
76787;DHT22;65739;51.482;5.702;2023-09-18T05:44:05;19.70;99.90
76787;DHT22;65739;51.482;5.702;2023-09-18T05:46:34;19.70;99.90
76787;DHT22;65739;51.482;5.702;2023-09-18T05:49:00;19.70;99.90
76787;DHT22;65739;51.482;5.702;2023-09-18T05:51:26;19.70;99.90
76787;DHT22;65739;51.482;5.702;2023-09-18T05:53:52;19.80;99.90
76787;DHT22;65739;51.482;5.702;2023-09-18T05:56:18;19.70;99.90
76787;DHT22;65739;51.482;5.702;2023-09-18T05:58:43;19.70;99.90
76787;DHT22;65739;51.482;5.702;2023-09-18T06:01:09;19.70;99.90
76787;DHT22;65739;51.482;5.702;2023-09-18T06:03:35;19.70;99.90
76787;DHT22;65739;51.482;5.702;2023-09-18T06:06:09;19.70;99.90
76787;DHT22;65739;51.482;5.702;2023-09-18T06:08:35;19.70;99.90
76787;DHT22;65739;51.482;5.702;2023-09-18T06:11:00;19.70;99.90
76787;DHT22;65739;51.482;5.702;2023-09-18T06:13:27;19.70;99.90
76787;DHT22;65739;51.482;5.702;2023-09-18T06:15:54;19.80;99.90
76787;DHT22;65739;51.482;5.702;2023-09-18T06:18:21;19.80;99.90
76787;DHT22;65739;51.482;5.702;2023-09-18T06:20:47;19.80;99.90
76787;DHT22;65739;51.482;5.702;2023-09-18T06:23:13;19.70;99.90
76787;DHT22;65739;51.482;5.702;2023-09-18T06:25:39;19.80;99.90
76787;DHT22;65739;51.482;5.702;2023-09-18T06:28:05;19.80;99.90
76787;DHT22;65739;51.482;5.702;2023-09-18T06:30:31;19.70;99.90
76787;DHT22;65739;51.482;5.702;2023-09-18T06:32:58;19.70;99.90
76787;DHT22;65739;51.482;5.702;2023-09-18T06:35:23;19.70;99.90
76787;DHT22;65739;51.482;5.702;2023-09-18T06:37:49;19.80;99.90
76787;DHT22;65739;51.482;5.702;2023-09-18T06:40:15;19.70;99.90
76787;DHT22;65739;51.482;5.702;2023-09-18T06:42:40;19.60;99.90
76787;DHT22;65739;51.482;5.702;2023-09-18T06:45:06;19.70;99.90
76787;DHT22;65739;51.482;5.702;2023-09-18T06:47:33;19.70;99.90
76787;DHT22;65739;51.482;5.702;2023-09-18T06:49:59;19.70;99.90
76787;DHT22;65739;51.482;5.702;2023-09-18T06:52:26;19.70;99.90
76787;DHT22;65739;51.482;5.702;2023-09-18T06:54:52;19.70;99.90
76787;DHT22;65739;51.482;5.702;2023-09-18T06:57:18;19.70;99.90
76787;DHT22;65739;51.482;5.702;2023-09-18T06:59:43;19.80;99.90
76787;DHT22;65739;51.482;5.702;2023-09-18T07:02:10;19.80;99.90
76787;DHT22;65739;51.482;5.702;2023-09-18T07:04:35;19.80;99.90
76787;DHT22;65739;51.482;5.702;2023-09-18T07:07:01;19.80;99.90
76787;DHT22;65739;51.482;5.702;2023-09-18T07:09:27;19.80;99.90
76787;DHT22;65739;51.482;5.702;2023-09-18T07:11:52;19.90;99.90
76787;DHT22;65739;51.482;5.702;2023-09-18T07:14:18;19.80;99.90
76787;DHT22;65739;51.482;5.702;2023-09-18T07:16:44;19.80;99.90
76787;DHT22;65739;51.482;5.702;2023-09-18T07:19:09;19.80;99.90
76787;DHT22;65739;51.482;5.702;2023-09-18T07:21:37;19.80;99.90
76787;DHT22;65739;51.482;5.702;2023-09-18T07:24:04;19.80;99.90
76787;DHT22;65739;51.482;5.702;2023-09-18T07:26:29;19.80;99.90
76787;DHT22;65739;51.482;5.702;2023-09-18T07:28:55;19.70;99.90
76787;DHT22;65739;51.482;5.702;2023-09-18T07:31:20;19.80;99.90
76787;DHT22;65739;51.482;5.702;2023-09-18T07:33:46;19.70;99.90
76787;DHT22;65739;51.482;5.702;2023-09-18T07:36:12;19.80;99.90
76787;DHT22;65739;51.482;5.702;2023-09-18T07:38:37;19.80;99.90
76787;DHT22;65739;51.482;5.702;2023-09-18T07:41:03;19.80;99.90
76787;DHT22;65739;51.482;5.702;2023-09-18T07:43:28;19.80;99.90
76787;DHT22;65739;51.482;5.702;2023-09-18T07:45:54;19.80;99.90
76787;DHT22;65739;51.482;5.702;2023-09-18T07:48:21;19.80;99.90
76787;DHT22;65739;51.482;5.702;2023-09-18T07:50:47;19.80;99.90
76787;DHT22;65739;51.482;5.702;2023-09-18T07:53:14;19.80;99.90
76787;DHT22;65739;51.482;5.702;2023-09-18T07:55:40;20.00;99.90
76787;DHT22;65739;51.482;5.702;2023-09-18T07:58:06;19.90;99.90
76787;DHT22;65739;51.482;5.702;2023-09-18T08:00:31;19.90;99.90
76787;DHT22;65739;51.482;5.702;2023-09-18T08:02:58;19.90;99.90
76787;DHT22;65739;51.482;5.702;2023-09-18T08:05:27;20.00;99.90
76787;DHT22;65739;51.482;5.702;2023-09-18T08:07:57;20.10;99.90
76787;DHT22;65739;51.482;5.702;2023-09-18T08:10:24;20.10;99.90
76787;DHT22;65739;51.482;5.702;2023-09-18T08:12:50;20.10;99.90
76787;DHT22;65739;51.482;5.702;2023-09-18T08:15:19;20.10;99.90
76787;DHT22;65739;51.482;5.702;2023-09-18T08:17:46;20.10;99.90
76787;DHT22;65739;51.482;5.702;2023-09-18T08:20:13;20.20;99.90
76787;DHT22;65739;51.482;5.702;2023-09-18T08:22:41;20.20;99.90
76787;DHT22;65739;51.482;5.702;2023-09-18T08:25:07;20.20;99.90
76787;DHT22;65739;51.482;5.702;2023-09-18T08:27:39;20.20;99.90
76787;DHT22;65739;51.482;5.702;2023-09-18T08:30:07;20.30;99.90
76787;DHT22;65739;51.482;5.702;2023-09-18T08:32:35;20.40;99.90
76787;DHT22;65739;51.482;5.702;2023-09-18T08:35:01;20.40;99.90
76787;DHT22;65739;51.482;5.702;2023-09-18T08:37:29;20.40;99.90
76787;DHT22;65739;51.482;5.702;2023-09-18T08:39:55;20.30;99.90
76787;DHT22;65739;51.482;5.702;2023-09-18T08:42:20;20.20;99.90
76787;DHT22;65739;51.482;5.702;2023-09-18T08:44:49;20.30;99.90
76787;DHT22;65739;51.482;5.702;2023-09-18T08:47:17;20.20;99.90
76787;DHT22;65739;51.482;5.702;2023-09-18T08:49:44;20.20;99.90
76787;DHT22;65739;51.482;5.702;2023-09-18T08:52:10;20.20;99.90
76787;DHT22;65739;51.482;5.702;2023-09-18T08:54:37;20.20;99.90
76787;DHT22;65739;51.482;5.702;2023-09-18T08:57:02;20.20;99.90
76787;DHT22;65739;51.482;5.702;2023-09-18T08:59:30;20.20;99.90
76787;DHT22;65739;51.482;5.702;2023-09-18T09:01:56;20.30;99.90
76787;DHT22;65739;51.482;5.702;2023-09-18T09:04:21;20.60;99.90
76787;DHT22;65739;51.482;5.702;2023-09-18T09:06:48;20.50;99.90
76787;DHT22;65739;51.482;5.702;2023-09-18T09:09:14;20.50;99.90
76787;DHT22;65739;51.482;5.702;2023-09-18T09:11:40;20.50;99.90
76787;DHT22;65739;51.482;5.702;2023-09-18T09:14:14;20.30;99.90
76787;DHT22;65739;51.482;5.702;2023-09-18T09:16:54;20.60;99.90
76787;DHT22;65739;51.482;5.702;2023-09-18T09:19:31;21.00;99.90
76787;DHT22;65739;51.482;5.702;2023-09-18T09:22:00;21.20;99.90
76787;DHT22;65739;51.482;5.702;2023-09-18T09:24:43;21.20;99.90
76787;DHT22;65739;51.482;5.702;2023-09-18T09:27:09;21.40;99.90
76787;DHT22;65739;51.482;5.702;2023-09-18T09:29:36;21.30;99.90
76787;DHT22;65739;51.482;5.702;2023-09-18T09:32:18;21.60;99.90
76787;DHT22;65739;51.482;5.702;2023-09-18T09:34:45;21.60;99.90
76787;DHT22;65739;51.482;5.702;2023-09-18T09:37:11;22.00;99.90
76787;DHT22;65739;51.482;5.702;2023-09-18T09:39:48;22.30;99.90
76787;DHT22;65739;51.482;5.702;2023-09-18T09:42:17;22.20;99.90
76787;DHT22;65739;51.482;5.702;2023-09-18T09:44:44;22.20;99.90
76787;DHT22;65739;51.482;5.702;2023-09-18T09:47:10;22.20;99.90
76787;DHT22;65739;51.482;5.702;2023-09-18T09:49:46;22.40;99.90
76787;DHT22;65739;51.482;5.702;2023-09-18T09:52:18;22.60;99.90
76787;DHT22;65739;51.482;5.702;2023-09-18T09:54:46;22.60;99.90
76787;DHT22;65739;51.482;5.702;2023-09-18T09:57:12;22.50;99.90
76787;DHT22;65739;51.482;5.702;2023-09-18T09:59:37;22.60;99.90
76787;DHT22;65739;51.482;5.702;2023-09-18T10:02:03;22.50;99.90
76787;DHT22;65739;51.482;5.702;2023-09-18T10:04:32;22.40;99.90
76787;DHT22;65739;51.482;5.702;2023-09-18T10:07:06;22.10;99.90
76787;DHT22;65739;51.482;5.702;2023-09-18T10:09:35;22.60;99.90
76787;DHT22;65739;51.482;5.702;2023-09-18T10:12:03;23.10;99.90
76787;DHT22;65739;51.482;5.702;2023-09-18T10:14:35;22.90;99.90
76787;DHT22;65739;51.482;5.702;2023-09-18T10:17:22;22.80;99.90
76787;DHT22;65739;51.482;5.702;2023-09-18T10:20:11;22.70;99.90
76787;DHT22;65739;51.482;5.702;2023-09-18T10:22:54;22.60;99.90
76787;DHT22;65739;51.482;5.702;2023-09-18T10:25:23;22.50;99.90
76787;DHT22;65739;51.482;5.702;2023-09-18T10:27:50;22.40;99.90
76787;DHT22;65739;51.482;5.702;2023-09-18T10:30:20;22.70;99.90
76787;DHT22;65739;51.482;5.702;2023-09-18T10:32:48;22.20;99.90
76787;DHT22;65739;51.482;5.702;2023-09-18T10:35:15;22.20;99.90
76787;DHT22;65739;51.482;5.702;2023-09-18T10:37:45;22.00;99.90
76787;DHT22;65739;51.482;5.702;2023-09-18T10:40:11;21.90;99.90
76787;DHT22;65739;51.482;5.702;2023-09-18T10:42:41;22.10;99.90
76787;DHT22;65739;51.482;5.702;2023-09-18T10:45:08;22.40;99.90
76787;DHT22;65739;51.482;5.702;2023-09-18T10:47:42;23.00;99.90
76787;DHT22;65739;51.482;5.702;2023-09-18T10:50:10;23.10;99.90
76787;DHT22;65739;51.482;5.702;2023-09-18T10:52:42;23.10;99.90
76787;DHT22;65739;51.482;5.702;2023-09-18T10:55:11;23.00;99.90
76787;DHT22;65739;51.482;5.702;2023-09-18T10:57:37;23.20;99.90
76787;DHT22;65739;51.482;5.702;2023-09-18T11:00:04;22.90;99.90
76787;DHT22;65739;51.482;5.702;2023-09-18T11:02:42;22.90;99.90
76787;DHT22;65739;51.482;5.702;2023-09-18T11:05:07;23.00;99.90
76787;DHT22;65739;51.482;5.702;2023-09-18T11:07:33;23.50;99.90
76787;DHT22;65739;51.482;5.702;2023-09-18T11:09:58;24.00;99.90
76787;DHT22;65739;51.482;5.702;2023-09-18T11:12:43;23.90;99.90
76787;DHT22;65739;51.482;5.702;2023-09-18T11:15:09;24.20;99.90
76787;DHT22;65739;51.482;5.702;2023-09-18T11:17:59;24.70;99.90
76787;DHT22;65739;51.482;5.702;2023-09-18T11:20:26;24.70;99.90
76787;DHT22;65739;51.482;5.702;2023-09-18T11:22:58;24.80;99.90
76787;DHT22;65739;51.482;5.702;2023-09-18T11:25:37;24.70;99.90
76787;DHT22;65739;51.482;5.702;2023-09-18T11:28:09;24.30;99.90
76787;DHT22;65739;51.482;5.702;2023-09-18T11:30:38;24.30;99.90
76787;DHT22;65739;51.482;5.702;2023-09-18T11:33:13;24.00;99.90
76787;DHT22;65739;51.482;5.702;2023-09-18T11:35:51;23.50;99.90
76787;DHT22;65739;51.482;5.702;2023-09-18T11:38:17;23.10;99.90
76787;DHT22;65739;51.482;5.702;2023-09-18T11:40:43;22.80;99.90
76787;DHT22;65739;51.482;5.702;2023-09-18T11:43:23;22.70;99.90
76787;DHT22;65739;51.482;5.702;2023-09-18T11:45:59;22.70;99.90
76787;DHT22;65739;51.482;5.702;2023-09-18T11:48:26;22.60;99.90
76787;DHT22;65739;51.482;5.702;2023-09-18T11:50:56;22.50;99.90
76787;DHT22;65739;51.482;5.702;2023-09-18T11:53:23;22.60;99.90
76787;DHT22;65739;51.482;5.702;2023-09-18T11:55:49;22.80;99.90
76787;DHT22;65739;51.482;5.702;2023-09-18T11:58:15;22.80;99.90
76787;DHT22;65739;51.482;5.702;2023-09-18T12:00:40;22.50;99.90
76787;DHT22;65739;51.482;5.702;2023-09-18T12:03:23;22.30;99.90
76787;DHT22;65739;51.482;5.702;2023-09-18T12:06:00;22.30;99.90
76787;DHT22;65739;51.482;5.702;2023-09-18T12:08:26;22.20;99.90
76787;DHT22;65739;51.482;5.702;2023-09-18T12:10:55;22.70;99.90
76787;DHT22;65739;51.482;5.702;2023-09-18T12:13:21;23.30;99.90
76787;DHT22;65739;51.482;5.702;2023-09-18T12:15:48;23.70;99.90
76787;DHT22;65739;51.482;5.702;2023-09-18T12:18:15;24.20;99.90
76787;DHT22;65739;51.482;5.702;2023-09-18T12:20:48;24.60;99.90
76787;DHT22;65739;51.482;5.702;2023-09-18T12:23:15;24.80;99.90
76787;DHT22;65739;51.482;5.702;2023-09-18T12:25:40;24.70;99.90
76787;DHT22;65739;51.482;5.702;2023-09-18T12:28:07;24.80;99.90
76787;DHT22;65739;51.482;5.702;2023-09-18T12:30:33;25.10;99.90
76787;DHT22;65739;51.482;5.702;2023-09-18T12:32:59;25.10;99.90
76787;DHT22;65739;51.482;5.702;2023-09-18T12:35:26;24.60;99.90
76787;DHT22;65739;51.482;5.702;2023-09-18T12:37:58;24.70;99.90
76787;DHT22;65739;51.482;5.702;2023-09-18T12:40:29;25.00;99.90
76787;DHT22;65739;51.482;5.702;2023-09-18T12:42:59;25.00;99.90
76787;DHT22;65739;51.482;5.702;2023-09-18T12:45:28;25.10;99.90
76787;DHT22;65739;51.482;5.702;2023-09-18T12:47:55;25.30;99.90
76787;DHT22;65739;51.482;5.702;2023-09-18T12:50:22;25.50;99.90
76787;DHT22;65739;51.482;5.702;2023-09-18T12:52:47;25.30;99.90
76787;DHT22;65739;51.482;5.702;2023-09-18T12:55:23;25.20;99.90
76787;DHT22;65739;51.482;5.702;2023-09-18T12:57:50;25.00;99.90
76787;DHT22;65739;51.482;5.702;2023-09-18T13:00:18;24.50;99.90
76787;DHT22;65739;51.482;5.702;2023-09-18T13:02:46;24.70;99.90
76787;DHT22;65739;51.482;5.702;2023-09-18T13:05:12;24.80;99.90
76787;DHT22;65739;51.482;5.702;2023-09-18T13:07:46;25.00;99.90
76787;DHT22;65739;51.482;5.702;2023-09-18T13:10:12;24.50;99.90
76787;DHT22;65739;51.482;5.702;2023-09-18T13:12:48;24.10;99.90
76787;DHT22;65739;51.482;5.702;2023-09-18T13:15:25;23.90;99.90
76787;DHT22;65739;51.482;5.702;2023-09-18T13:17:52;23.90;99.90
76787;DHT22;65739;51.482;5.702;2023-09-18T13:20:24;23.70;99.90
76787;DHT22;65739;51.482;5.702;2023-09-18T13:22:53;23.80;99.90
76787;DHT22;65739;51.482;5.702;2023-09-18T13:25:32;23.90;99.90
76787;DHT22;65739;51.482;5.702;2023-09-18T13:28:02;24.80;99.90
76787;DHT22;65739;51.482;5.702;2023-09-18T13:30:29;25.20;99.90
76787;DHT22;65739;51.482;5.702;2023-09-18T13:33:13;25.60;99.90
76787;DHT22;65739;51.482;5.702;2023-09-18T13:35:43;25.80;99.90
76787;DHT22;65739;51.482;5.702;2023-09-18T13:38:09;25.70;99.90
76787;DHT22;65739;51.482;5.702;2023-09-18T13:40:36;25.80;99.90
76787;DHT22;65739;51.482;5.702;2023-09-18T13:43:03;25.50;99.90
76787;DHT22;65739;51.482;5.702;2023-09-18T13:45:30;25.50;99.90
76787;DHT22;65739;51.482;5.702;2023-09-18T13:47:55;25.70;99.90
76787;DHT22;65739;51.482;5.702;2023-09-18T13:50:21;26.00;99.90
76787;DHT22;65739;51.482;5.702;2023-09-18T13:52:47;26.20;99.90
76787;DHT22;65739;51.482;5.702;2023-09-18T13:55:12;25.90;99.90
76787;DHT22;65739;51.482;5.702;2023-09-18T13:57:38;26.00;99.90
76787;DHT22;65739;51.482;5.702;2023-09-18T14:00:06;25.80;99.90
76787;DHT22;65739;51.482;5.702;2023-09-18T14:02:32;26.00;99.90
76787;DHT22;65739;51.482;5.702;2023-09-18T14:04:58;25.70;99.90
76787;DHT22;65739;51.482;5.702;2023-09-18T14:07:24;25.50;99.90
76787;DHT22;65739;51.482;5.702;2023-09-18T14:09:50;25.20;99.90
76787;DHT22;65739;51.482;5.702;2023-09-18T14:12:15;25.10;99.90
76787;DHT22;65739;51.482;5.702;2023-09-18T14:14:42;25.50;99.90
76787;DHT22;65739;51.482;5.702;2023-09-18T14:17:08;25.80;99.90
76787;DHT22;65739;51.482;5.702;2023-09-18T14:19:34;25.30;99.90
76787;DHT22;65739;51.482;5.702;2023-09-18T14:22:00;25.00;99.90
76787;DHT22;65739;51.482;5.702;2023-09-18T14:24:29;25.00;99.90
76787;DHT22;65739;51.482;5.702;2023-09-18T14:26:55;25.30;99.90
76787;DHT22;65739;51.482;5.702;2023-09-18T14:29:21;25.30;99.90
76787;DHT22;65739;51.482;5.702;2023-09-18T14:31:47;25.40;99.90
76787;DHT22;65739;51.482;5.702;2023-09-18T14:34:12;25.50;99.90
76787;DHT22;65739;51.482;5.702;2023-09-18T14:36:39;25.50;99.90
76787;DHT22;65739;51.482;5.702;2023-09-18T14:39:05;25.70;99.90
76787;DHT22;65739;51.482;5.702;2023-09-18T14:41:35;25.90;99.90
76787;DHT22;65739;51.482;5.702;2023-09-18T14:44:01;25.70;99.90
76787;DHT22;65739;51.482;5.702;2023-09-18T14:46:29;25.30;99.90
76787;DHT22;65739;51.482;5.702;2023-09-18T14:48:54;25.20;99.90
76787;DHT22;65739;51.482;5.702;2023-09-18T14:51:20;25.10;99.90
76787;DHT22;65739;51.482;5.702;2023-09-18T14:53:45;25.20;99.90
76787;DHT22;65739;51.482;5.702;2023-09-18T14:56:11;25.30;99.90
76787;DHT22;65739;51.482;5.702;2023-09-18T14:58:37;25.30;99.90
76787;DHT22;65739;51.482;5.702;2023-09-18T15:01:02;24.80;99.90
76787;DHT22;65739;51.482;5.702;2023-09-18T15:03:28;24.70;99.90
76787;DHT22;65739;51.482;5.702;2023-09-18T15:05:54;24.70;99.90
76787;DHT22;65739;51.482;5.702;2023-09-18T15:08:21;24.60;99.90
76787;DHT22;65739;51.482;5.702;2023-09-18T15:10:46;24.30;99.90
76787;DHT22;65739;51.482;5.702;2023-09-18T15:13:12;24.20;99.90
76787;DHT22;65739;51.482;5.702;2023-09-18T15:15:39;24.10;99.90
76787;DHT22;65739;51.482;5.702;2023-09-18T15:18:05;24.10;99.90
76787;DHT22;65739;51.482;5.702;2023-09-18T15:20:31;24.00;99.90
76787;DHT22;65739;51.482;5.702;2023-09-18T15:22:56;24.00;99.90
76787;DHT22;65739;51.482;5.702;2023-09-18T15:25:22;23.90;99.90
76787;DHT22;65739;51.482;5.702;2023-09-18T15:27:48;23.80;99.90
76787;DHT22;65739;51.482;5.702;2023-09-18T15:30:14;23.80;99.90
76787;DHT22;65739;51.482;5.702;2023-09-18T15:32:54;23.80;99.90